createdAt,value
2018-03-08T00:01:29.037Z,3.55
2018-03-08T00:03:57.783Z,3.37
2018-03-08T00:06:26.539Z,3.37
2018-03-08T00:08:56.050Z,4.80
2018-03-08T00:11:24.805Z,4.05
2018-03-08T00:13:53.553Z,4.78
2018-03-08T00:16:22.313Z,4.05
2018-03-08T00:18:51.506Z,4.12
2018-03-08T00:21:21.016Z,3.37
2018-03-08T00:23:50.530Z,4.78
2018-03-08T00:26:19.281Z,3.42
2018-03-08T00:28:48.033Z,3.60
2018-03-08T00:31:16.780Z,3.70
2018-03-08T00:33:46.300Z,3.78
2018-03-08T00:36:15.828Z,3.67
2018-03-08T00:38:44.580Z,4.03
2018-03-08T00:41:13.755Z,3.65
2018-03-08T00:43:42.513Z,3.97
2018-03-08T00:46:11.265Z,3.47
2018-03-08T00:48:40.775Z,3.90
2018-03-08T00:51:10.285Z,4.35
2018-03-08T00:53:39.026Z,3.92
2018-03-08T00:56:07.781Z,3.90
2018-03-08T00:58:36.519Z,4.60
2018-03-08T01:01:04.945Z,3.85
2018-03-08T01:03:33.639Z,4.25
2018-03-08T01:06:02.317Z,3.90
2018-03-08T01:08:30.971Z,3.53
2018-03-08T01:10:59.950Z,3.62
2018-03-08T01:13:28.606Z,3.45
2018-03-08T01:15:57.248Z,3.83
2018-03-08T01:18:26.670Z,3.92
2018-03-08T01:20:56.079Z,4.05
2018-03-08T01:23:25.495Z,4.40
2018-03-08T01:25:54.150Z,3.05
2018-03-08T01:28:23.569Z,3.70
2018-03-08T01:30:52.999Z,4.20
2018-03-08T01:33:21.650Z,3.55
2018-03-08T01:35:50.410Z,3.87
2018-03-08T01:38:19.065Z,3.37
2018-03-08T01:40:47.724Z,3.53
2018-03-08T01:43:17.426Z,4.18
2018-03-08T01:45:46.863Z,4.07
2018-03-08T01:48:15.518Z,3.58
2018-03-08T01:50:44.938Z,3.87
2018-03-08T01:53:13.587Z,3.60
2018-03-08T01:55:42.243Z,3.95
2018-03-08T01:58:10.910Z,3.92
2018-03-08T02:00:38.898Z,4.12
2018-03-08T02:03:07.553Z,3.75
2018-03-08T02:05:36.215Z,3.65
2018-03-08T02:08:04.537Z,4.20
2018-03-08T02:10:33.186Z,4.20
2018-03-08T02:13:02.602Z,3.50
2018-03-08T02:15:30.957Z,3.90
2018-03-08T02:17:59.671Z,4.05
2018-03-08T02:20:28.347Z,3.30
2018-03-08T02:22:57.775Z,3.85
2018-03-08T02:25:26.434Z,3.83
2018-03-08T02:27:55.847Z,4.47
2018-03-08T02:30:25.266Z,3.95
2018-03-08T02:32:53.935Z,3.67
2018-03-08T02:35:22.606Z,3.87
2018-03-08T02:37:52.027Z,4.15
2018-03-08T02:40:20.698Z,4.20
2018-03-08T02:42:50.124Z,4.93
2018-03-08T02:45:18.784Z,4.68
2018-03-08T02:47:48.210Z,4.15
2018-03-08T02:50:17.634Z,4.68
2018-03-08T02:52:48.805Z,5.22
2018-03-08T02:55:17.480Z,5.10
2018-03-08T02:57:46.134Z,5.15
2018-03-08T03:00:14.687Z,4.75
2018-03-08T03:05:17.090Z,5.10
2018-03-08T03:07:45.734Z,4.40
2018-03-08T03:10:14.988Z,5.18
2018-03-08T03:12:43.643Z,5.37
2018-03-08T03:15:12.502Z,5.07
2018-03-08T03:17:41.155Z,6.35
2018-03-08T03:20:10.571Z,5.20
2018-03-08T03:22:39.244Z,5.35
2018-03-08T03:25:08.669Z,5.60
2018-03-08T03:27:37.914Z,5.78
2018-03-08T03:30:06.229Z,4.90
2018-03-08T03:32:35.654Z,5.05
2018-03-08T03:35:03.649Z,4.70
2018-03-08T03:37:32.298Z,5.47
2018-03-08T03:40:00.942Z,5.70
2018-03-08T03:42:29.590Z,5.22
2018-03-08T03:44:59.057Z,5.10
2018-03-08T03:47:27.513Z,4.87
2018-03-08T03:49:56.165Z,5.60
2018-03-08T03:55:06.009Z,4.72
2018-03-08T03:57:34.691Z,5.50
2018-03-08T04:00:04.187Z,5.15
2018-03-08T04:02:33.608Z,4.82
2018-03-08T04:05:02.867Z,4.97
2018-03-08T04:07:31.523Z,4.50
2018-03-08T04:10:00.170Z,5.45
2018-03-08T04:12:29.587Z,5.03
2018-03-08T04:14:58.240Z,5.30
2018-03-08T04:17:26.923Z,5.03
2018-03-08T04:19:55.574Z,5.20
2018-03-08T04:22:24.277Z,5.95
2018-03-08T04:24:53.096Z,5.40
2018-03-08T04:27:23.116Z,5.30
2018-03-08T04:29:52.554Z,5.20
2018-03-08T04:32:21.215Z,5.30
2018-03-08T04:34:50.639Z,5.85
2018-03-08T04:37:19.290Z,5.53
2018-03-08T04:39:47.943Z,5.43
2018-03-08T04:42:16.589Z,6.07
2018-03-08T04:44:46.116Z,6.70
2018-03-08T04:47:14.767Z,6.62
2018-03-08T04:49:44.183Z,6.30
2018-03-08T04:52:13.613Z,7.55
2018-03-08T04:54:42.267Z,6.62
2018-03-08T04:57:11.690Z,6.72
2018-03-08T04:59:40.347Z,7.12
2018-03-08T05:02:09.947Z,6.37
2018-03-08T05:04:38.604Z,7.53
2018-03-08T05:07:07.256Z,7.95
2018-03-08T05:09:35.924Z,8.32
2018-03-08T05:12:05.343Z,7.40
2018-03-08T05:14:33.996Z,8.02
2018-03-08T05:17:02.647Z,8.82
2018-03-08T05:19:31.314Z,7.80
2018-03-08T05:21:59.776Z,8.05
2018-03-08T05:24:28.446Z,8.02
2018-03-08T05:26:57.892Z,10.02
2018-03-08T05:29:27.557Z,8.95
2018-03-08T05:31:56.265Z,9.55
2018-03-08T05:34:25.147Z,10.18
2018-03-08T05:36:53.806Z,8.65
2018-03-08T05:39:22.482Z,9.98
2018-03-08T05:41:51.145Z,9.05
2018-03-08T05:44:19.807Z,9.85
2018-03-08T05:46:48.466Z,9.48
2018-03-08T05:49:17.890Z,8.93
2018-03-08T05:51:46.554Z,9.57
2018-03-08T05:54:16.016Z,9.43
2018-03-08T05:56:44.687Z,8.80
2018-03-08T05:59:14.948Z,10.95
2018-03-08T06:01:43.623Z,9.13
2018-03-08T06:04:12.327Z,8.00
2018-03-08T06:06:41.036Z,8.38
2018-03-08T06:09:10.476Z,8.48
2018-03-08T06:11:39.139Z,8.85
2018-03-08T06:14:09.416Z,8.43
2018-03-08T06:16:38.133Z,7.50
2018-03-08T06:19:10.855Z,8.57
2018-03-08T06:21:40.800Z,9.43
2018-03-08T06:24:09.586Z,7.50
2018-03-08T06:26:39.979Z,8.30
2018-03-08T06:29:08.655Z,8.60
2018-03-08T06:31:37.335Z,8.55
2018-03-08T06:34:06.416Z,8.95
2018-03-08T06:36:35.074Z,8.95
2018-03-08T06:39:03.460Z,9.02
2018-03-08T06:41:33.042Z,8.20
2018-03-08T06:44:01.700Z,8.35
2018-03-08T06:46:31.305Z,9.00
2018-03-08T06:48:59.996Z,8.70
2018-03-08T06:51:28.673Z,9.93
2018-03-08T06:53:58.569Z,9.70
2018-03-08T06:56:27.994Z,9.13
2018-03-08T06:58:56.658Z,8.80
2018-03-08T07:01:25.328Z,8.35
2018-03-08T07:03:54.003Z,9.27
2018-03-08T07:06:22.662Z,8.90
2018-03-08T07:08:51.318Z,9.82
2018-03-08T07:11:20.755Z,9.98
2018-03-08T07:13:49.419Z,9.35
2018-03-08T07:16:18.855Z,8.73
2018-03-08T07:18:47.551Z,9.43
2018-03-08T07:21:15.894Z,9.57
2018-03-08T07:23:44.550Z,8.75
2018-03-08T07:26:13.672Z,10.45
2018-03-08T07:28:42.358Z,9.27
2018-03-08T07:31:11.792Z,9.00
2018-03-08T07:33:40.461Z,9.50
2018-03-08T07:36:09.366Z,9.73
2018-03-08T07:38:38.037Z,9.57
2018-03-08T07:41:06.710Z,10.68
2018-03-08T07:43:36.148Z,9.65
2018-03-08T07:46:04.828Z,9.20
2018-03-08T07:48:33.485Z,8.57
2018-03-08T07:51:02.923Z,9.90
2018-03-08T07:53:31.600Z,10.02
2018-03-08T07:56:00.270Z,10.25
2018-03-08T07:58:28.750Z,9.82
2018-03-08T08:00:57.429Z,10.50
2018-03-08T08:03:26.876Z,9.98
2018-03-08T08:06:06.643Z,8.80
2018-03-08T08:09:01.647Z,8.68
2018-03-08T08:11:30.323Z,10.45
2018-03-08T08:13:58.995Z,9.18
2018-03-08T08:16:27.665Z,10.23
2018-03-08T08:18:56.036Z,9.52
2018-03-08T08:21:25.540Z,10.00
2018-03-08T08:23:55.176Z,9.73
2018-03-08T08:26:23.835Z,9.60
2018-03-08T08:28:52.511Z,9.55
2018-03-08T08:33:58.989Z,9.20
2018-03-08T08:36:27.716Z,9.73
2018-03-08T08:38:57.002Z,8.85
2018-03-08T08:41:25.685Z,9.48
2018-03-08T08:43:54.356Z,10.15
2018-03-08T08:46:23.786Z,9.35
2018-03-08T08:48:52.462Z,11.68
2018-03-08T08:51:21.137Z,10.48
2018-03-08T08:53:50.587Z,11.52
2018-03-08T08:56:19.254Z,9.35
2018-03-08T08:58:47.926Z,9.23
2018-03-08T09:01:16.415Z,10.07
2018-03-08T09:03:46.912Z,9.55
2018-03-08T09:08:53.376Z,10.15
2018-03-08T09:11:22.030Z,8.60
2018-03-08T09:13:50.708Z,9.75
2018-03-08T09:16:19.368Z,9.15
2018-03-08T09:18:48.795Z,9.25
2018-03-08T09:21:18.243Z,10.00
2018-03-08T09:23:46.919Z,10.65
2018-03-08T09:26:16.398Z,11.00
2018-03-08T09:28:45.063Z,9.65
2018-03-08T09:31:14.521Z,9.55
2018-03-08T09:33:43.196Z,9.98
2018-03-08T09:36:12.353Z,10.15
2018-03-08T09:38:41.775Z,9.55
2018-03-08T09:41:10.475Z,10.57
2018-03-08T09:43:39.151Z,10.25
2018-03-08T09:46:07.828Z,10.52
2018-03-08T09:48:36.512Z,10.45
2018-03-08T09:51:06.010Z,10.48
2018-03-08T09:53:35.456Z,9.90
2018-03-08T09:56:03.791Z,8.70
2018-03-08T09:58:33.232Z,9.00
2018-03-08T10:01:01.930Z,9.88
2018-03-08T10:03:30.868Z,8.77
2018-03-08T10:06:00.307Z,9.05
2018-03-08T10:08:29.867Z,9.40
2018-03-08T10:10:58.531Z,9.23
2018-03-08T10:13:27.224Z,9.07
2018-03-08T10:15:55.950Z,7.32
2018-03-08T10:18:24.608Z,8.30
2018-03-08T10:20:53.864Z,9.45
2018-03-08T10:23:22.551Z,9.18
2018-03-08T10:25:51.288Z,8.40
2018-03-08T10:28:20.860Z,8.63
2018-03-08T10:30:49.531Z,9.13
2018-03-08T10:33:18.228Z,8.27
2018-03-08T10:35:47.050Z,7.30
2018-03-08T10:38:15.719Z,9.10
2018-03-08T10:40:44.385Z,7.57
2018-03-08T10:43:13.043Z,6.68
2018-03-08T10:45:42.458Z,6.15
2018-03-08T10:48:11.550Z,6.45
2018-03-08T10:50:40.978Z,5.90
2018-03-08T10:53:09.304Z,6.78
2018-03-08T10:55:37.971Z,5.87
2018-03-08T10:58:07.522Z,7.15
2018-03-08T11:00:43.055Z,7.22
2018-03-08T11:03:11.719Z,5.50
2018-03-08T11:05:53.132Z,5.47
2018-03-08T11:08:22.424Z,4.45
2018-03-08T11:10:51.850Z,4.70
2018-03-08T11:13:21.290Z,3.10
2018-03-08T11:15:49.947Z,2.80
2018-03-08T11:18:19.372Z,3.53
2018-03-08T11:20:48.265Z,4.40
2018-03-08T11:23:17.222Z,3.47
2018-03-08T11:25:45.540Z,3.92
2018-03-08T11:28:14.200Z,3.45
2018-03-08T11:30:43.694Z,4.20
2018-03-08T11:33:12.364Z,3.78
2018-03-08T11:35:41.032Z,4.30
2018-03-08T11:38:10.650Z,3.60
2018-03-08T11:40:38.995Z,2.70
2018-03-08T11:43:07.656Z,2.60
2018-03-08T11:45:36.334Z,2.70
2018-03-08T11:48:05.434Z,3.08
2018-03-08T11:50:35.233Z,3.37
2018-03-08T11:53:05.722Z,2.35
2018-03-08T11:55:34.399Z,2.00
2018-03-08T11:58:04.071Z,1.87
2018-03-08T12:00:33.507Z,2.37
2018-03-08T12:03:02.167Z,1.70
2018-03-08T12:05:31.599Z,1.67
2018-03-08T12:08:00.265Z,2.33
2018-03-08T12:10:28.930Z,2.53
2018-03-08T12:12:57.588Z,2.10
2018-03-08T12:15:26.247Z,2.35
2018-03-08T12:17:55.033Z,2.22
2018-03-08T12:20:23.450Z,2.60
2018-03-08T12:22:52.264Z,2.40
2018-03-08T12:25:21.696Z,1.90
2018-03-08T12:27:50.380Z,2.45
2018-03-08T12:30:19.053Z,2.75
2018-03-08T12:32:47.727Z,2.17
2018-03-08T12:35:17.170Z,1.98
2018-03-08T12:37:45.834Z,3.12
2018-03-08T12:40:14.928Z,2.12
2018-03-08T12:42:43.592Z,2.00
2018-03-08T12:45:12.255Z,1.95
2018-03-08T12:47:40.927Z,1.92
2018-03-08T12:50:09.595Z,2.37
2018-03-08T12:52:38.258Z,2.20
2018-03-08T12:55:07.691Z,2.55
2018-03-08T12:57:36.362Z,2.53
2018-03-08T13:00:04.718Z,2.58
2018-03-08T13:02:34.148Z,2.40
2018-03-08T13:05:02.816Z,2.65
2018-03-08T13:07:32.266Z,1.85
2018-03-08T13:10:00.946Z,2.50
2018-03-08T13:12:29.603Z,2.40
2018-03-08T13:14:58.272Z,2.62
2018-03-08T13:17:27.732Z,2.53
2018-03-08T13:19:56.395Z,2.95
2018-03-08T13:22:25.052Z,2.42
2018-03-08T13:24:54.479Z,2.10
2018-03-08T13:27:23.182Z,2.25
2018-03-08T13:29:51.881Z,1.90
2018-03-08T13:32:20.554Z,2.00
2018-03-08T13:34:49.217Z,2.12
2018-03-08T13:37:18.652Z,2.25
2018-03-08T13:39:47.316Z,2.25
2018-03-08T13:42:15.986Z,2.53
2018-03-08T13:44:45.413Z,2.80
2018-03-08T13:47:14.084Z,2.60
2018-03-08T13:49:44.284Z,2.30
2018-03-08T13:52:12.959Z,2.00
2018-03-08T13:54:42.211Z,1.90
2018-03-08T13:57:10.870Z,2.08
2018-03-08T13:59:40.948Z,1.50
2018-03-08T14:02:09.115Z,1.90
2018-03-08T14:04:39.815Z,2.62
2018-03-08T14:07:09.260Z,2.55
2018-03-08T14:09:39.830Z,2.20
2018-03-08T14:12:09.272Z,1.98
2018-03-08T14:14:37.932Z,2.30
2018-03-08T14:17:07.173Z,2.10
2018-03-08T14:19:35.847Z,2.03
2018-03-08T14:22:05.279Z,2.12
2018-03-08T14:24:33.943Z,2.33
2018-03-08T14:27:02.660Z,2.22
2018-03-08T14:29:31.482Z,2.92
2018-03-08T14:32:00.933Z,3.05
2018-03-08T14:34:30.518Z,2.20
2018-03-08T14:36:59.175Z,2.50
2018-03-08T14:39:28.614Z,2.40
2018-03-08T14:41:58.696Z,2.50
2018-03-08T14:44:28.135Z,2.62
2018-03-08T14:46:56.807Z,2.75
2018-03-08T14:49:25.899Z,2.20
2018-03-08T14:51:55.379Z,2.47
2018-03-08T14:54:23.903Z,2.30
2018-03-08T14:56:52.572Z,2.37
2018-03-08T15:02:01.142Z,2.55
2018-03-08T15:04:30.577Z,2.55
2018-03-08T15:06:59.239Z,2.50
2018-03-08T15:09:27.927Z,1.90
2018-03-08T15:11:56.607Z,1.60
2018-03-08T15:14:25.286Z,3.25
2018-03-08T15:16:55.111Z,1.75
2018-03-08T15:19:23.811Z,2.53
2018-03-08T15:21:52.481Z,2.72
2018-03-08T15:24:22.105Z,2.10
2018-03-08T15:26:51.010Z,2.42
2018-03-08T15:29:19.695Z,2.15
2018-03-08T15:31:50.385Z,2.08
2018-03-08T15:34:18.911Z,1.98
2018-03-08T15:36:47.605Z,2.40
2018-03-08T15:39:15.975Z,1.92
2018-03-08T15:41:46.264Z,2.55
2018-03-08T15:44:15.980Z,1.70
2018-03-08T15:46:44.650Z,1.83
2018-03-08T15:49:13.323Z,1.77
2018-03-08T15:51:44.806Z,3.50
2018-03-08T15:54:13.842Z,1.95
2018-03-08T15:56:42.501Z,2.22
2018-03-08T15:59:11.162Z,2.00
2018-03-08T16:01:39.831Z,1.87
2018-03-08T16:04:09.500Z,1.80
2018-03-08T16:06:49.437Z,2.25
2018-03-08T16:09:29.564Z,1.80
2018-03-08T16:11:58.282Z,2.20
2018-03-08T16:14:27.834Z,2.42
2018-03-08T16:16:57.284Z,2.03
2018-03-08T16:19:27.137Z,2.08
2018-03-08T16:21:56.586Z,2.40
2018-03-08T16:24:25.247Z,2.08
2018-03-08T16:26:54.677Z,2.03
2018-03-08T16:32:08.069Z,1.70
2018-03-08T16:34:36.734Z,2.10
2018-03-08T16:37:05.400Z,1.70
2018-03-08T16:39:34.812Z,2.05
2018-03-08T16:42:03.488Z,2.12
2018-03-08T16:44:33.658Z,2.15
2018-03-08T16:47:03.228Z,2.20
2018-03-08T16:49:31.893Z,2.12
2018-03-08T16:52:00.557Z,3.05
2018-03-08T16:54:29.223Z,3.10
2018-03-08T16:56:57.908Z,2.95
2018-03-08T16:59:27.507Z,3.40
2018-03-08T17:01:57.271Z,3.67
2018-03-08T17:04:26.029Z,4.60
2018-03-08T17:06:55.071Z,3.35
2018-03-08T17:09:24.707Z,3.58
2018-03-08T17:11:53.552Z,3.97
2018-03-08T17:14:22.995Z,4.00
2018-03-08T17:16:51.675Z,4.03
2018-03-08T17:19:21.870Z,3.78
2018-03-08T17:21:50.527Z,4.05
2018-03-08T17:24:19.184Z,4.22
2018-03-08T17:26:47.873Z,4.05
2018-03-08T17:29:39.800Z,4.85
2018-03-08T17:32:11.850Z,3.85
2018-03-08T17:37:38.371Z,4.35
2018-03-08T17:40:08.595Z,4.05
2018-03-08T17:42:37.272Z,6.40
2018-03-08T17:45:05.943Z,4.53
2018-03-08T17:47:34.289Z,3.62
2018-03-08T17:50:02.942Z,4.05
2018-03-08T17:52:33.107Z,3.22
2018-03-08T17:55:01.764Z,3.53
2018-03-08T17:57:30.418Z,3.70
2018-03-08T17:59:59.851Z,4.43
2018-03-08T18:02:28.519Z,5.25
2018-03-08T18:04:58.887Z,4.37
2018-03-08T18:07:27.538Z,4.03
2018-03-08T18:09:56.968Z,4.60
2018-03-08T18:12:25.630Z,4.12
2018-03-08T18:14:55.290Z,3.95
2018-03-08T18:17:23.975Z,4.35
2018-03-08T18:19:54.221Z,3.83
2018-03-08T18:22:25.508Z,4.18
2018-03-08T18:24:54.204Z,4.28
2018-03-08T18:27:29.897Z,4.50
2018-03-08T18:29:58.386Z,6.15
2018-03-08T18:32:27.760Z,4.78
2018-03-08T18:34:56.163Z,4.93
2018-03-08T18:37:24.855Z,5.40
2018-03-08T18:39:53.800Z,5.75
2018-03-08T18:42:22.147Z,5.07
2018-03-08T18:44:51.582Z,5.30
2018-03-08T18:47:20.249Z,4.82
2018-03-08T18:49:49.703Z,4.82
2018-03-08T18:52:18.409Z,4.80
2018-03-08T18:54:47.071Z,5.80
2018-03-08T18:57:15.739Z,5.40
2018-03-08T18:59:44.473Z,5.85
2018-03-08T19:02:13.555Z,6.30
2018-03-08T19:04:42.286Z,5.60
2018-03-08T19:07:11.858Z,5.05
2018-03-08T19:09:41.491Z,6.05
2018-03-08T19:12:10.957Z,6.18
2018-03-08T19:14:39.627Z,6.43
2018-03-08T19:17:09.611Z,6.15
2018-03-08T19:19:38.913Z,6.47
2018-03-08T19:22:08.367Z,6.00
2018-03-08T19:24:37.266Z,5.95
2018-03-08T19:27:06.704Z,6.80
2018-03-08T19:29:35.946Z,5.85
2018-03-08T19:32:04.618Z,5.80
2018-03-08T19:34:33.280Z,5.30
2018-03-08T19:37:03.436Z,5.47
2018-03-08T19:39:33.041Z,4.97
2018-03-08T19:42:03.917Z,5.68
2018-03-08T19:44:32.575Z,7.37
2018-03-08T19:47:01.259Z,6.05
2018-03-08T19:49:29.941Z,5.53
2018-03-08T19:51:59.459Z,5.57
2018-03-08T19:54:29.650Z,4.80
2018-03-08T19:56:59.696Z,5.90
2018-03-08T19:59:28.675Z,5.80
2018-03-08T20:01:57.866Z,5.30
2018-03-08T20:04:27.695Z,5.25
2018-03-08T20:06:56.419Z,5.60
2018-03-08T20:09:25.092Z,5.55
2018-03-08T20:11:53.763Z,5.07
2018-03-08T20:14:22.418Z,4.72
2018-03-08T20:16:51.074Z,5.10
2018-03-08T20:19:19.739Z,5.68
2018-03-08T20:21:49.018Z,5.35
2018-03-08T20:24:18.437Z,5.53
2018-03-08T20:26:48.026Z,7.15
2018-03-08T20:29:16.733Z,5.25
2018-03-08T20:31:45.576Z,5.25
2018-03-08T20:34:14.059Z,5.50
2018-03-08T20:36:43.494Z,4.53
2018-03-08T20:39:13.069Z,5.12
2018-03-08T20:41:42.468Z,4.72
2018-03-08T20:44:11.919Z,6.05
2018-03-08T20:46:40.599Z,4.55
2018-03-08T20:49:09.995Z,4.80
2018-03-08T20:51:39.410Z,5.32
2018-03-08T20:54:08.555Z,37.97
2018-03-08T20:56:38.424Z,13.90
2018-03-08T21:01:43.721Z,5.47
2018-03-08T21:04:12.375Z,4.97
2018-03-08T21:06:41.914Z,5.20
2018-03-08T21:09:11.506Z,5.28
2018-03-08T21:11:40.170Z,4.57
2018-03-08T21:14:08.840Z,4.15
2018-03-08T21:16:38.319Z,4.30
2018-03-08T21:19:07.418Z,4.82
2018-03-08T21:21:36.575Z,4.05
2018-03-08T21:24:06.525Z,5.05
2018-03-08T21:26:34.866Z,4.35
2018-03-08T21:29:03.568Z,4.22
2018-03-08T21:31:32.303Z,5.12
2018-03-08T21:34:00.995Z,5.40
2018-03-08T21:36:30.156Z,4.55
2018-03-08T21:38:59.272Z,4.93
2018-03-08T21:41:28.746Z,4.10
2018-03-08T21:43:57.428Z,10.18
2018-03-08T21:46:26.101Z,14.30
2018-03-08T21:48:54.762Z,5.43
2018-03-08T21:51:23.430Z,3.90
2018-03-08T21:53:52.869Z,4.18
2018-03-08T21:56:21.526Z,4.72
2018-03-08T21:58:51.449Z,4.28
2018-03-08T22:01:20.143Z,4.45
2018-03-08T22:03:48.966Z,4.28
2018-03-08T22:06:23.859Z,4.60
2018-03-08T22:08:52.963Z,4.85
2018-03-08T22:11:21.639Z,4.07
2018-03-08T22:13:50.320Z,4.20
2018-03-08T22:16:19.415Z,3.85
2018-03-08T22:18:48.086Z,3.53
2018-03-08T22:21:17.526Z,3.05
2018-03-08T22:23:46.190Z,3.03
2018-03-08T22:26:15.624Z,2.50
2018-03-08T22:28:44.292Z,2.03
2018-03-08T22:31:12.956Z,3.03
2018-03-08T22:33:42.410Z,2.40
2018-03-08T22:36:11.684Z,3.58
2018-03-08T22:38:40.340Z,2.85
2018-03-08T22:41:08.995Z,4.07
2018-03-08T22:43:37.659Z,2.67
2018-03-08T22:46:06.329Z,2.53
2018-03-08T22:48:34.992Z,2.92
2018-03-08T22:51:04.426Z,2.67
2018-03-08T22:53:33.110Z,2.37
2018-03-08T22:56:02.598Z,2.50
2018-03-08T22:58:32.127Z,2.58
2018-03-08T23:01:02.576Z,2.30
2018-03-08T23:03:31.237Z,2.25
2018-03-08T23:05:59.906Z,2.35
2018-03-08T23:08:29.346Z,2.17
2018-03-08T23:10:58.011Z,2.87
2018-03-08T23:13:26.674Z,2.12
2018-03-08T23:15:56.107Z,2.15
2018-03-08T23:18:24.770Z,2.50
2018-03-08T23:20:53.862Z,1.70
2018-03-08T23:23:23.292Z,2.12
2018-03-08T23:25:51.981Z,2.58
2018-03-08T23:28:20.647Z,1.98
2018-03-08T23:30:50.059Z,1.90
2018-03-08T23:33:19.478Z,1.62
2018-03-08T23:35:48.136Z,2.15
2018-03-08T23:38:17.567Z,0.98
2018-03-08T23:40:46.225Z,1.15
2018-03-08T23:43:15.659Z,1.00
2018-03-08T23:45:44.306Z,0.85
2018-03-08T23:48:12.957Z,1.05
2018-03-08T23:50:41.606Z,1.00
2018-03-08T23:53:11.039Z,0.80
2018-03-08T23:55:39.707Z,1.12
2018-03-08T23:58:14.774Z,0.95
